Time;durP1;ratioP1;P1;durP2;ratioP2;P2;SDS_P1;SDS_P2;PMS_P1;PMS_P2;Temp;Humidity;BMP_temperature;BMP_pressure;BME280_temperature;BME280_humidity;BME280_pressure;Samples;Min_cycle;Max_cycle;Signal;HPM_P1;HPM_P2
2022/11/06 00:01:11;;;;;;;4.05;2.10;;;;;;;19.23;46.59;101391.47;5021210;28;20365;-66
2022/11/06 00:03:37;;;;;;;5.05;1.98;;;;;;;19.19;46.47;101397.00;5020814;28;20025;-67
2022/11/06 00:08:55;;;;;;;4.43;1.73;;;;;;;19.18;46.50;101394.47;5031981;28;20055;-64
2022/11/06 00:11:20;;;;;;;3.35;1.70;;;;;;;19.17;46.25;101395.47;5037247;28;20029;-65
2022/11/06 00:13:46;;;;;;;3.78;1.83;;;;;;;19.14;46.20;101393.88;5037542;28;20041;-67
2022/11/06 00:16:13;;;;;;;4.50;1.70;;;;;;;19.11;46.54;101385.34;5029285;28;20052;-64
2022/11/06 00:18:39;;;;;;;4.13;1.80;;;;;;;19.12;46.39;101398.44;5037643;28;20033;-64
2022/11/06 00:21:16;;;;;;;3.97;1.40;;;;;;;19.09;46.19;101393.41;5037182;28;20481;-64
2022/11/06 00:23:43;;;;;;;4.80;1.80;;;;;;;19.10;46.04;101394.22;5027338;28;20052;-66
2022/11/06 00:26:11;;;;;;;4.18;1.58;;;;;;;19.03;46.09;101378.00;5025006;28;20060;-67
2022/11/06 00:28:36;;;;;;;3.47;1.58;;;;;;;19.07;46.18;101386.53;5027222;28;20033;-65
2022/11/06 00:31:07;;;;;;;4.03;1.80;;;;;;;19.06;46.01;101388.34;5029239;28;20044;-66
2022/11/06 00:33:33;;;;;;;3.42;1.60;;;;;;;19.02;46.33;101385.09;5033333;28;20064;-66
2022/11/06 00:36:02;;;;;;;4.80;1.95;;;;;;;19.00;46.13;101378.25;5043061;28;20147;-67
2022/11/06 00:38:28;;;;;;;4.68;1.75;;;;;;;18.99;46.34;101372.13;5024735;28;20033;-65
2022/11/06 00:40:53;;;;;;;4.82;1.85;;;;;;;18.98;46.24;101365.16;5024492;28;20037;-65
2022/11/06 00:43:18;;;;;;;3.70;1.70;;;;;;;19.00;46.21;101365.03;5024632;28;20091;-66
2022/11/06 00:45:43;;;;;;;5.53;2.07;;;;;;;18.96;46.27;101361.81;5033404;28;20068;-67
2022/11/06 00:48:09;;;;;;;5.73;1.60;;;;;;;18.96;46.21;101358.31;5044415;28;20665;-65
2022/11/06 00:50:34;;;;;;;4.37;1.60;;;;;;;18.95;46.40;101360.09;5043563;28;20288;-66
2022/11/06 00:52:59;;;;;;;4.50;1.80;;;;;;;18.92;46.07;101360.34;5038493;28;20295;-67
2022/11/06 00:55:25;;;;;;;4.43;1.83;;;;;;;18.84;45.99;101345.06;5028368;28;20029;-66
2022/11/06 00:57:51;;;;;;;3.90;1.60;;;;;;;18.89;46.31;101357.09;5034388;28;20040;-65
2022/11/06 01:00:17;;;;;;;4.55;1.83;;;;;;;18.89;46.27;101357.09;5027329;28;20265;-66
2022/11/06 01:02:44;;;;;;;3.25;1.42;;;;;;;18.89;46.08;101368.50;5024077;28;20482;-65
2022/11/06 01:05:09;;;;;;;4.32;1.52;;;;;;;18.91;46.08;101378.94;5031860;28;20132;-65
2022/11/06 01:07:34;;;;;;;4.38;1.70;;;;;;;18.91;45.96;101376.31;5043517;28;20124;-65
2022/11/06 01:10:00;;;;;;;5.50;1.60;;;;;;;18.87;46.25;101367.78;5033099;28;20030;-65
2022/11/06 01:12:25;;;;;;;4.30;1.67;;;;;;;18.90;46.32;101374.59;5035780;28;21014;-65
2022/11/06 01:14:50;;;;;;;6.15;2.60;;;;;;;18.85;46.19;101364.44;5023750;28;20057;-66
2022/11/06 01:17:16;;;;;;;3.42;1.52;;;;;;;18.84;46.22;101358.28;5023755;28;20033;-65
2022/11/06 01:19:41;;;;;;;4.07;1.50;;;;;;;18.85;46.11;101354.69;5024048;28;20092;-64
2022/11/06 01:22:06;;;;;;;4.60;1.70;;;;;;;18.82;46.27;101352.25;5037848;28;20265;-65
2022/11/06 01:24:31;;;;;;;4.53;1.83;;;;;;;18.82;46.02;101351.41;5035757;28;20837;-66
2022/11/06 01:26:57;;;;;;;2.80;1.35;;;;;;;18.79;46.07;101347.19;5032408;28;20565;-63
2022/11/06 01:29:23;;;;;;;4.25;1.60;;;;;;;18.78;46.22;101344.69;5023421;28;20049;-63
2022/11/06 01:31:49;;;;;;;4.38;1.70;;;;;;;18.79;46.17;101349.84;5025546;28;20107;-66
2022/11/06 01:34:15;;;;;;;3.40;1.23;;;;;;;18.80;46.03;101353.31;5023565;28;20029;-64
2022/11/06 01:36:40;;;;;;;3.58;1.70;;;;;;;18.74;46.04;101344.06;5022954;28;20470;-63
2022/11/06 01:39:10;;;;;;;5.63;1.73;;;;;;;18.74;46.19;101327.38;5027110;28;20035;-66
2022/11/06 01:41:39;;;;;;;4.80;1.80;;;;;;;18.75;46.16;101324.63;5043616;28;20086;-65
2022/11/06 01:44:30;;;;;;;3.10;1.40;;;;;;;18.74;46.01;101322.09;5043045;28;20112;-64
2022/11/06 01:46:55;;;;;;;4.28;1.80;;;;;;;18.75;46.11;101323.78;5011329;28;20392;-65
2022/11/06 01:49:21;;;;;;;3.50;1.30;;;;;;;18.74;46.06;101325.59;5042697;28;20036;-64
2022/11/06 01:51:49;;;;;;;3.20;1.50;;;;;;;18.73;46.19;101329.19;5042565;28;20036;-65
2022/11/06 01:54:16;;;;;;;3.78;1.42;;;;;;;18.71;46.04;101328.47;5039304;28;20020;-66
2022/11/06 01:56:43;;;;;;;3.70;1.63;;;;;;;18.73;46.16;101328.34;5027755;28;20051;-65
2022/11/06 01:59:14;;;;;;;3.30;1.45;;;;;;;18.72;46.29;101322.22;5038050;28;20030;-66
2022/11/06 02:01:39;;;;;;;4.22;1.58;;;;;;;18.68;46.00;101320.78;5030981;28;20802;-63
2022/11/06 02:04:10;;;;;;;5.47;1.85;;;;;;;18.71;46.23;101317.03;5035514;28;20024;-64
2022/11/06 02:06:37;;;;;;;4.97;1.63;;;;;;;18.69;46.25;101319.81;5023313;28;20171;-64
2022/11/06 02:09:10;;;;;;;5.93;1.63;;;;;;;18.66;46.13;101312.16;5022754;28;20040;-65
2022/11/06 02:11:35;;;;;;;3.85;1.60;;;;;;;18.67;46.35;101314.66;5033465;28;20261;-65
2022/11/06 02:14:12;;;;;;;4.53;1.50;;;;;;;18.66;46.18;101309.50;5042350;28;20369;-67
2022/11/06 02:16:47;;;;;;;3.60;1.50;;;;;;;18.67;46.11;101316.44;5042202;28;20124;-65
2022/11/06 02:19:34;;;;;;;4.22;1.40;;;;;;;18.65;46.11;101310.44;5042772;28;20041;-65
2022/11/06 02:22:27;;;;;;;4.00;1.50;;;;;;;18.61;46.06;101301.06;5042260;28;20090;-65
2022/11/06 02:25:29;;;;;;;4.05;1.55;;;;;;;18.64;46.16;101301.69;5042445;28;20075;-65
2022/11/06 02:28:02;;;;;;;4.85;1.50;;;;;;;18.63;46.35;101299.19;5035179;28;20076;-65
2022/11/06 02:30:30;;;;;;;2.92;1.23;;;;;;;18.60;46.13;101300.25;5042337;28;20041;-64
2022/11/06 02:33:05;;;;;;;5.45;2.00;;;;;;;18.58;46.00;101283.69;5042409;28;20102;-66
2022/11/06 02:35:46;;;;;;;4.72;1.50;;;;;;;18.59;46.10;101288.00;5041958;28;20124;-65
2022/11/06 02:38:16;;;;;;;4.95;1.88;;;;;;;18.60;46.16;101291.50;5032323;28;20088;-66
2022/11/06 02:40:48;;;;;;;3.60;1.20;;;;;;;18.61;46.16;101285.22;5025449;28;20786;-65
2022/11/06 02:43:15;;;;;;;5.07;1.80;;;;;;;18.60;46.06;101287.03;5038323;28;20113;-65
2022/11/06 02:45:47;;;;;;;3.97;1.35;;;;;;;18.58;45.90;101283.69;5026699;28;20452;-64
2022/11/06 02:48:18;;;;;;;3.67;1.25;;;;;;;18.57;46.24;101283.81;5022374;28;20116;-65
2022/11/06 02:50:47;;;;;;;3.78;1.38;;;;;;;18.54;46.12;101278.75;5022809;28;20029;-65
2022/11/06 02:53:15;;;;;;;4.90;1.58;;;;;;;18.55;46.09;101281.28;5041546;28;20458;-66
2022/11/06 02:55:46;;;;;;;4.40;1.40;;;;;;;18.55;46.18;101291.84;5022215;28;20063;-64
2022/11/06 02:58:16;;;;;;;4.20;1.38;;;;;;;18.56;46.32;101285.56;5040186;28;20033;-64
2022/11/06 03:00:47;;;;;;;3.60;1.27;;;;;;;18.58;45.89;101288.97;5041613;28;20033;-67
2022/11/06 03:03:19;;;;;;;4.65;1.30;;;;;;;18.57;46.19;101295.19;5021530;28;20021;-64
2022/11/06 03:05:57;;;;;;;5.05;1.38;;;;;;;18.57;46.22;101297.00;5028059;28;20055;-64
2022/11/06 03:08:30;;;;;;;4.05;1.50;;;;;;;18.56;46.10;101300.59;5027174;28;20470;-65
2022/11/06 03:11:13;;;;;;;5.68;1.67;;;;;;;18.57;46.04;101310.19;5031487;28;20103;-64
2022/11/06 03:13:49;;;;;;;4.65;1.30;;;;;;;18.56;46.03;101321.69;5041464;28;20562;-65
2022/11/06 03:16:38;;;;;;;3.90;1.40;;;;;;;18.55;46.05;101304.16;5026282;28;20123;-65
2022/11/06 03:19:11;;;;;;;4.03;1.40;;;;;;;18.51;45.98;101279.00;5035530;28;20511;-64
2022/11/06 03:21:50;;;;;;;4.40;1.60;;;;;;;18.54;45.89;101294.59;5031674;28;20123;-63
2022/11/06 03:24:23;;;;;;;3.85;1.25;;;;;;;18.51;46.25;101282.47;5040255;28;20033;-65
2022/11/06 03:26:52;;;;;;;4.18;1.33;;;;;;;18.47;46.07;101259.91;5038053;28;20596;-65
2022/11/06 03:29:42;;;;;;;3.20;1.20;;;;;;;18.52;46.24;101276.22;5029967;28;20056;-64
2022/11/06 03:32:22;;;;;;;3.58;1.30;;;;;;;18.48;46.00;101259.78;5026296;28;20091;-64
2022/11/06 03:34:54;;;;;;;4.65;1.40;;;;;;;18.49;46.34;101252.72;5041436;28;20107;-65
2022/11/06 03:37:28;;;;;;;4.68;1.50;;;;;;;18.45;45.88;101248.59;5041090;28;20131;-67
2022/11/06 03:39:58;;;;;;;3.25;1.35;;;;;;;18.46;46.01;101248.50;5037874;28;20030;-64
2022/11/06 03:42:28;;;;;;;2.88;1.30;;;;;;;18.45;46.10;101251.25;5021173;28;20037;-67
2022/11/06 03:44:59;;;;;;;2.78;1.20;;;;;;;18.44;46.06;101246.94;5021103;28;20410;-66
2022/11/06 03:47:32;;;;;;;5.00;1.30;;;;;;;18.48;45.96;101253.66;5020040;28;20033;-64
2022/11/06 03:50:05;;;;;;;3.47;1.40;;;;;;;18.48;46.27;101243.09;5021027;28;20049;-63
2022/11/06 03:52:37;;;;;;;3.42;1.20;;;;;;;18.43;46.00;101221.50;5030402;28;20045;-64
2022/11/06 03:55:15;;;;;;;3.75;1.20;;;;;;;18.44;46.19;101223.19;5021409;28;20116;-63
2022/11/06 03:58:00;;;;;;;3.92;1.30;;;;;;;18.48;46.44;101222.84;5029893;28;20060;-67
2022/11/06 04:00:25;;;;;;;5.10;1.30;;;;;;;18.47;46.48;101213.25;5033520;28;20035;-65
2022/11/06 04:03:03;;;;;;;3.72;1.48;;;;;;;18.46;46.11;101208.06;5022755;28;20057;-67
2022/11/06 04:05:33;;;;;;;3.47;1.40;;;;;;;18.47;46.17;101204.50;5038934;28;20043;-66
2022/11/06 04:16:17;;;;;;;2.97;1.17;;;;;;;18.52;45.92;101206.75;5025832;28;20395;-67
2022/11/06 04:18:42;;;;;;;4.70;1.40;;;;;;;18.40;46.14;101185.63;5040487;28;20462;-65
2022/11/06 04:21:26;;;;;;;4.75;1.35;;;;;;;18.51;45.88;101194.53;5027823;28;20060;-65
2022/11/06 04:27:01;;;;;;;2.90;1.45;;;;;;;18.45;46.32;101169.44;5037956;28;20059;-65
2022/11/06 04:29:51;;;;;;;3.65;1.23;;;;;;;18.52;46.14;101183.84;5032328;28;20072;-65
2022/11/06 04:32:26;;;;;;;3.70;1.38;;;;;;;18.50;46.02;101177.88;5030178;28;20055;-64
2022/11/06 04:35:36;;;;;;;3.47;1.25;;;;;;;18.49;45.98;101179.63;5025157;28;20037;-65
2022/11/06 04:38:17;;;;;;;4.32;1.40;;;;;;;18.48;46.02;101177.97;5012349;28;20034;-66
2022/11/06 04:41:08;;;;;;;4.82;1.48;;;;;;;18.48;46.15;101182.41;5029842;28;20033;-65
2022/11/06 04:43:46;;;;;;;3.55;1.23;;;;;;;18.42;45.89;101159.13;5034698;28;20025;-66
2022/11/06 04:46:18;;;;;;;3.88;1.40;;;;;;;18.43;46.17;101166.91;5031152;28;20025;-64
2022/11/06 04:48:45;;;;;;;3.58;1.30;;;;;;;18.43;45.96;101164.28;5024520;28;20030;-66
2022/11/06 04:51:13;;;;;;;4.50;1.30;;;;;;;18.43;46.21;101168.72;5022854;28;20021;-66
2022/11/06 04:53:38;;;;;;;4.25;1.30;;;;;;;18.43;46.03;101168.72;5035076;28;20433;-64
2022/11/06 04:56:12;;;;;;;4.50;1.20;;;;;;;18.44;46.08;101171.25;5040250;28;20033;-65
2022/11/06 04:58:41;;;;;;;4.50;1.30;;;;;;;18.43;46.13;101169.56;5034814;28;20021;-67
2022/11/06 05:01:07;;;;;;;4.68;1.40;;;;;;;18.39;46.09;101160.22;5035324;28;20033;-65
2022/11/06 05:03:32;;;;;;;4.28;1.20;;;;;;;18.41;46.00;101160.09;5033065;28;20029;-65
2022/11/06 05:05:57;;;;;;;4.10;1.20;;;;;;;18.41;46.08;101158.28;5030577;28;20025;-66
2022/11/06 05:08:23;;;;;;;4.93;1.10;;;;;;;18.37;46.13;101156.84;5040119;28;20056;-64
2022/11/06 05:10:48;;;;;;;2.53;1.10;;;;;;;18.38;46.41;101153.25;5024180;28;20261;-66
2022/11/06 05:13:14;;;;;;;4.55;1.30;;;;;;;18.36;46.21;101146.41;5024052;28;20405;-66
2022/11/06 05:15:40;;;;;;;2.85;1.10;;;;;;;18.37;46.19;101148.91;5036844;28;20033;-65
2022/11/06 05:18:05;;;;;;;3.60;1.20;;;;;;;18.34;46.43;101143.91;5036065;28;20041;-66
2022/11/06 05:20:31;;;;;;;2.65;1.20;;;;;;;18.37;45.91;101141.00;5030581;28;20086;-65
2022/11/06 05:22:56;;;;;;;5.28;1.48;;;;;;;18.37;46.11;101137.53;5030097;28;20044;-65
2022/11/06 05:25:23;;;;;;;3.72;1.27;;;;;;;18.37;46.27;101142.81;5029073;28;20042;-64
2022/11/06 05:27:49;;;;;;;4.32;1.20;;;;;;;18.35;46.32;101142.94;5041329;28;20027;-65
2022/11/06 05:30:14;;;;;;;3.95;1.50;;;;;;;18.37;46.04;101145.44;5031380;28;20025;-65
2022/11/06 05:32:39;;;;;;;4.63;1.45;;;;;;;18.23;46.39;101123.63;5032489;28;20040;-68
2022/11/06 05:35:05;;;;;;;4.27;1.33;;;;;;;18.37;46.09;101134.91;5041834;28;20135;-65
2022/11/06 05:37:31;;;;;;;3.92;1.35;;;;;;;18.36;46.23;101135.84;5031939;28;20278;-65
2022/11/06 05:39:56;;;;;;;3.65;1.20;;;;;;;18.34;46.40;101129.84;5032147;28;20036;-65
2022/11/06 05:42:21;;;;;;;3.88;1.23;;;;;;;18.37;46.37;101133.09;5031750;28;20935;-66
2022/11/06 05:44:46;;;;;;;4.57;1.27;;;;;;;18.37;46.22;101126.97;5031264;28;20033;-64
2022/11/06 05:47:12;;;;;;;3.60;1.30;;;;;;;18.39;46.06;101128.56;5055841;28;20052;-64
2022/11/06 05:49:37;;;;;;;3.13;1.10;;;;;;;18.38;46.08;101128.66;5043078;28;20280;-65
2022/11/06 05:52:02;;;;;;;3.87;1.30;;;;;;;18.39;46.11;101136.47;5035843;28;20385;-65
2022/11/06 05:54:27;;;;;;;3.22;1.30;;;;;;;18.38;46.20;101123.38;5037992;28;20254;-66
2022/11/06 05:56:53;;;;;;;3.55;1.30;;;;;;;18.34;46.17;101122.78;5025626;28;20588;-65
2022/11/06 05:59:18;;;;;;;2.13;1.00;;;;;;;18.33;45.92;101107.91;5035032;28;20048;-65
2022/11/06 06:01:43;;;;;;;3.17;1.03;;;;;;;18.37;45.95;101114.63;5038123;28;20263;-66
2022/11/06 06:04:08;;;;;;;3.13;1.20;;;;;;;18.33;46.03;101113.19;5024158;28;20809;-65
2022/11/06 06:06:35;;;;;;;4.43;1.20;;;;;;;18.31;46.30;101113.31;5036892;28;20255;-65
2022/11/06 06:09:00;;;;;;;2.42;0.95;;;;;;;18.36;46.17;101120.88;5033664;28;20035;-64
2022/11/06 06:11:25;;;;;;;4.38;1.27;;;;;;;18.34;46.23;101120.16;5027713;28;20586;-67
2022/11/06 06:13:50;;;;;;;2.88;1.00;;;;;;;18.30;46.21;101108.97;5024330;28;20140;-65
2022/11/06 06:16:16;;;;;;;4.53;1.10;;;;;;;18.25;46.21;101100.59;5037744;28;20037;-63
2022/11/06 06:18:41;;;;;;;2.77;1.00;;;;;;;18.34;46.32;101104.31;5023991;28;20297;-66
2022/11/06 06:21:06;;;;;;;5.30;1.38;;;;;;;18.31;46.65;101100.13;5030845;28;20306;-64
2022/11/06 06:23:31;;;;;;;3.33;1.23;;;;;;;18.34;46.83;101088.50;5022474;28;20082;-65
2022/11/06 06:25:57;;;;;;;3.30;1.20;;;;;;;18.39;47.08;101091.59;5048296;28;20290;-65
2022/11/06 06:28:22;;;;;;;2.95;1.23;;;;;;;18.43;46.51;101100.94;5042228;28;20077;-66
2022/11/06 06:30:47;;;;;;;3.37;1.17;;;;;;;18.44;46.94;101097.34;5039613;28;20029;-67
2022/11/06 06:33:13;;;;;;;2.13;0.97;;;;;;;18.49;46.72;101104.91;5032746;28;20281;-65
2022/11/06 06:35:38;;;;;;;3.28;1.10;;;;;;;18.52;46.66;101114.38;5024919;28;21134;-64
2022/11/06 06:38:03;;;;;;;2.88;1.40;;;;;;;18.56;46.81;101116.66;5034752;28;20025;-66
2022/11/06 06:40:29;;;;;;;3.53;1.00;;;;;;;18.61;46.56;101116.28;5035382;28;20033;-65
2022/11/06 06:42:55;;;;;;;3.15;1.17;;;;;;;18.63;46.42;101114.38;5028756;28;20044;-65
2022/11/06 06:45:20;;;;;;;2.92;1.02;;;;;;;18.68;46.65;101117.50;5025197;28;20025;-64
2022/11/06 06:47:46;;;;;;;2.85;1.20;;;;;;;18.60;46.68;101101.44;5022442;28;20022;-65
2022/11/06 06:50:11;;;;;;;2.80;1.10;;;;;;;18.72;46.56;101108.34;5040827;28;20044;-65
2022/11/06 06:52:36;;;;;;;2.60;1.20;;;;;;;18.75;46.58;101109.94;5041557;28;20319;-65
2022/11/06 06:55:02;;;;;;;2.65;1.00;;;;;;;18.79;46.33;101106.09;5031404;28;20258;-65
2022/11/06 06:57:27;;;;;;;2.35;1.10;;;;;;;18.81;46.38;101097.06;5036879;28;20025;-64
2022/11/06 06:59:52;;;;;;;4.43;1.10;;;;;;;18.87;46.54;101094.91;5032589;28;20369;-66
2022/11/06 07:02:18;;;;;;;2.43;0.93;;;;;;;18.89;46.38;101093.84;5038244;28;20063;-65
2022/11/06 07:04:43;;;;;;;2.42;0.90;;;;;;;18.88;46.46;101094.78;5027791;28;20726;-65
2022/11/06 07:07:08;;;;;;;3.13;1.13;;;;;;;18.95;46.51;101100.44;5021839;28;20033;-66
2022/11/06 07:09:33;;;;;;;4.63;1.23;;;;;;;18.96;46.38;101105.59;5022186;28;20278;-67
2022/11/06 07:11:59;;;;;;;1.93;1.00;;;;;;;18.95;46.41;101108.38;5021697;28;20267;-65
2022/11/06 07:14:24;;;;;;;3.05;0.93;;;;;;;18.99;46.54;101099.22;5034278;28;20608;-67
2022/11/06 07:16:49;;;;;;;2.90;0.90;;;;;;;18.97;46.28;101095.88;5032560;28;20121;-67
2022/11/06 07:19:15;;;;;;;2.92;1.00;;;;;;;19.02;46.35;101101.63;5040379;28;20021;-66
2022/11/06 07:21:40;;;;;;;2.47;1.00;;;;;;;19.02;46.51;101102.44;5021996;28;20424;-70
2022/11/06 07:24:05;;;;;;;5.03;1.30;;;;;;;19.03;46.35;101096.22;5041048;28;20029;-64
2022/11/06 07:26:31;;;;;;;3.10;0.90;;;;;;;19.05;46.38;101098.72;5040285;28;20668;-64
2022/11/06 07:28:56;;;;;;;3.00;1.00;;;;;;;19.01;46.35;101089.41;5040908;28;20211;-65
2022/11/06 07:31:21;;;;;;;3.10;1.10;;;;;;;19.02;46.35;101093.69;5030547;28;20025;-67
2022/11/06 07:33:46;;;;;;;1.73;0.80;;;;;;;19.08;46.56;101105.56;5037268;28;20325;-66
2022/11/06 07:36:12;;;;;;;2.60;1.23;;;;;;;19.07;46.27;101103.88;5024198;28;20108;-65
2022/11/06 07:38:39;;;;;;;3.00;1.15;;;;;;;19.10;46.05;101096.53;5041012;28;20261;-67
2022/11/06 07:41:10;;;;;;;2.80;1.08;;;;;;;19.09;46.13;101096.66;5028728;28;20029;-67
2022/11/06 07:43:36;;;;;;;3.20;1.10;;;;;;;19.09;46.24;101094.03;5031902;28;20048;-71
2022/11/06 07:46:04;;;;;;;3.92;1.30;;;;;;;19.05;46.36;101080.25;5032083;28;20036;-68
2022/11/06 07:48:30;;;;;;;2.95;0.90;;;;;;;19.06;46.18;101076.63;5028462;28;20040;-67
2022/11/06 07:50:56;;;;;;;4.03;1.00;;;;;;;19.11;46.63;101078.91;5032613;28;20041;-64
2022/11/06 07:53:22;;;;;;;2.55;0.88;;;;;;;19.13;46.59;101075.16;5020039;28;20492;-68
2022/11/06 07:55:52;;;;;;;2.88;1.05;;;;;;;19.13;46.59;101066.41;5031486;28;20393;-65
2022/11/06 07:58:18;;;;;;;4.15;1.23;;;;;;;19.13;46.73;101064.59;5021774;28;20504;-65
2022/11/06 08:00:48;;;;;;;4.70;1.30;;;;;;;19.18;45.99;101062.44;5022435;28;20034;-64
2022/11/06 08:03:13;;;;;;;2.67;1.10;;;;;;;19.17;46.62;101067.84;5030209;28;20029;-63
2022/11/06 08:05:39;;;;;;;3.80;1.10;;;;;;;19.14;46.75;101066.28;5026799;28;20120;-65
2022/11/06 08:08:04;;;;;;;3.85;1.10;;;;;;;19.20;46.78;101076.34;5031603;28;20051;-64
2022/11/06 08:10:29;;;;;;;4.28;0.98;;;;;;;19.21;46.90;101077.19;5040976;28;20109;-65
2022/11/06 08:12:54;;;;;;;4.00;1.35;;;;;;;19.23;47.00;101071.75;5030505;28;20037;-65
2022/11/06 08:15:20;;;;;;;3.70;1.13;;;;;;;19.22;46.96;101070.94;5024576;28;20117;-65
2022/11/06 08:17:45;;;;;;;4.15;1.02;;;;;;;19.21;46.90;101063.97;5031685;28;20266;-65
2022/11/06 08:20:10;;;;;;;4.57;1.17;;;;;;;19.21;46.96;101070.06;5021056;28;20061;-65
2022/11/06 08:22:35;;;;;;;4.57;1.45;;;;;;;19.27;47.17;101068.75;5038085;28;20281;-63
2022/11/06 08:25:01;;;;;;;5.73;1.03;;;;;;;19.25;46.92;101056.63;5033741;28;20038;-65
2022/11/06 08:27:27;;;;;;;5.07;1.10;;;;;;;19.25;47.11;101059.25;5037666;28;20285;-62
2022/11/06 08:29:52;;;;;;;2.65;0.98;;;;;;;19.25;47.29;101051.34;5040549;28;20285;-64
2022/11/06 08:32:18;;;;;;;2.92;1.10;;;;;;;19.29;47.14;101064.16;5026660;28;20037;-63
2022/11/06 08:34:43;;;;;;;3.90;1.15;;;;;;;19.30;47.45;101044.72;5027568;28;20116;-65
2022/11/06 08:37:09;;;;;;;5.85;1.60;;;;;;;19.32;47.83;101048.06;5022315;28;20131;-64
2022/11/06 08:39:34;;;;;;;5.53;1.27;;;;;;;19.31;48.41;101046.41;5031499;28;20079;-64
2022/11/06 08:54:23;;;;;;;4.72;1.60;;;;;;;19.24;49.17;101021.44;4895868;22;1894224;-66
2022/11/06 08:56:48;;;;;;;6.00;1.60;;;;;;;19.26;49.32;101026.59;5078133;28;20036;-67
2022/11/06 08:59:13;;;;;;;8.37;1.83;;;;;;;19.20;49.45;101028.78;5077741;28;20039;-71
2022/11/06 09:01:39;;;;;;;5.10;1.50;;;;;;;19.18;49.81;101024.59;5059767;28;20316;-75
2022/11/06 09:04:04;;;;;;;5.97;1.50;;;;;;;19.15;49.55;101017.78;5077511;28;20297;-74
2022/11/06 09:06:30;;;;;;;6.85;1.67;;;;;;;19.20;49.70;101009.44;5077761;28;20257;-75
2022/11/06 09:08:55;;;;;;;5.28;1.77;;;;;;;19.22;49.28;100999.59;5078253;28;20113;-72
2022/11/06 09:11:20;;;;;;;4.97;1.65;;;;;;;19.30;49.20;101013.00;5077329;28;20024;-74
2022/11/06 09:13:46;;;;;;;4.40;1.73;;;;;;;19.30;49.16;100997.16;5077717;28;20422;-70
2022/11/06 09:16:11;;;;;;;4.57;1.30;;;;;;;19.39;49.19;101000.81;5077840;28;20078;-72
2022/11/06 09:18:36;;;;;;;8.13;1.57;;;;;;;19.45;48.91;100991.53;5077492;28;20119;-74
2022/11/06 09:21:02;;;;;;;8.55;1.60;;;;;;;19.51;48.80;100985.75;5077747;28;20265;-71
2022/11/06 09:23:28;;;;;;;9.77;2.05;;;;;;;19.57;48.84;100986.03;5059596;28;20036;-72
2022/11/06 09:25:53;;;;;;;5.65;1.80;;;;;;;19.63;48.67;100983.84;5077692;28;20028;-71
2022/11/06 09:28:18;;;;;;;4.37;1.40;;;;;;;19.65;48.20;100972.19;5077511;28;20032;-75
2022/11/06 09:30:44;;;;;;;4.13;1.50;;;;;;;19.70;48.21;100971.78;5077706;28;20367;-76
2022/11/06 09:33:09;;;;;;;8.70;2.08;;;;;;;19.73;48.11;100959.13;5077381;28;20280;-73
2022/11/06 09:35:35;;;;;;;8.48;1.45;;;;;;;19.73;48.05;100953.84;5077228;28;20097;-68
2022/11/06 09:38:06;;;;;;;6.38;1.33;;;;;;;19.75;48.24;100959.81;5077250;28;20106;-76
2022/11/06 09:40:38;;;;;;;6.78;1.45;;;;;;;19.77;48.03;100966.84;5077302;28;20039;-75
2022/11/06 09:43:29;;;;;;;6.93;1.80;;;;;;;19.80;47.54;100950.69;5077360;28;20856;-78
2022/11/06 09:46:03;;;;;;;4.00;1.45;;;;;;;19.81;47.66;100955.03;5058815;28;20032;-69
2022/11/06 09:48:45;;;;;;;6.47;1.50;;;;;;;19.80;47.46;100964.75;5076966;28;20043;-69
2022/11/06 09:51:43;;;;;;;7.63;1.60;;;;;;;19.80;47.67;100948.88;5076920;28;20032;-77
2022/11/06 09:54:16;;;;;;;7.63;1.42;;;;;;;19.84;47.72;100950.31;5078430;28;20056;-74
2022/11/06 09:56:45;;;;;;;7.50;1.85;;;;;;;19.90;47.65;100956.84;5077454;28;20039;-73
2022/11/06 09:59:15;;;;;;;6.28;1.40;;;;;;;19.89;47.55;100955.19;5077685;28;20040;-77
2022/11/06 10:01:56;;;;;;;4.30;1.40;;;;;;;19.94;47.49;100956.44;5077841;28;20117;-75
2022/11/06 10:04:35;;;;;;;4.45;1.20;;;;;;;19.97;47.36;100955.34;5071269;28;20136;-73
2022/11/06 10:07:00;;;;;;;3.90;1.40;;;;;;;20.00;47.33;100951.63;5064517;28;20056;-73
2022/11/06 10:09:26;;;;;;;5.80;1.55;;;;;;;19.96;47.45;100939.63;5063378;28;20124;-75
2022/11/06 10:12:02;;;;;;;5.43;1.52;;;;;;;19.99;47.06;100942.00;5063293;28;20029;-73
2022/11/06 10:14:57;;;;;;;4.97;1.17;;;;;;;19.96;47.25;100940.44;5063098;28;20032;-73
2022/11/06 10:17:35;;;;;;;4.85;1.30;;;;;;;19.97;46.98;100942.13;5063304;28;20085;-75
2022/11/06 10:20:17;;;;;;;5.38;1.45;;;;;;;19.99;47.23;100934.06;5063316;28;20053;-73
2022/11/06 10:22:55;;;;;;;4.45;1.55;;;;;;;19.97;47.05;100926.25;5063279;28;20448;-69
2022/11/06 10:25:26;;;;;;;3.15;1.10;;;;;;;19.94;47.10;100924.72;5063544;28;20032;-69
2022/11/06 10:28:01;;;;;;;8.43;1.60;;;;;;;19.95;47.25;100936.16;5063458;28;20104;-73
2022/11/06 10:30:44;;;;;;;5.40;1.60;;;;;;;19.92;47.04;100925.84;5046081;28;20032;-74
2022/11/06 10:33:23;;;;;;;5.30;1.27;;;;;;;19.91;47.08;100914.41;5063863;28;20471;-77
2022/11/06 10:35:57;;;;;;;5.43;1.58;;;;;;;19.94;47.08;100923.88;5063016;28;20041;-75
2022/11/06 10:38:26;;;;;;;5.40;1.55;;;;;;;19.90;46.71;100902.16;5062823;28;20062;-73
2022/11/06 10:40:53;;;;;;;4.60;1.50;;;;;;;19.92;47.00;100916.09;5062410;28;20471;-73
2022/11/06 10:43:37;;;;;;;5.20;1.55;;;;;;;19.93;46.82;100915.13;5062249;28;20514;-73
2022/11/06 10:46:30;;;;;;;3.25;1.10;;;;;;;19.92;46.86;100908.16;5062689;28;20605;-69
2022/11/06 10:49:09;;;;;;;5.93;1.23;;;;;;;19.89;47.09;100886.44;5062476;28;20475;-72
2022/11/06 10:51:48;;;;;;;4.47;1.25;;;;;;;19.90;47.08;100890.72;5062341;28;20074;-72
2022/11/06 10:54:41;;;;;;;4.85;1.33;;;;;;;19.94;47.17;100887.69;5062209;28;20045;-71
2022/11/06 10:57:35;;;;;;;6.15;1.10;;;;;;;19.91;46.86;100874.72;5062319;28;20056;-72
2022/11/06 11:00:03;;;;;;;3.92;1.52;;;;;;;19.94;47.06;100863.06;5062546;28;20039;-77
2022/11/06 11:02:31;;;;;;;6.20;1.17;;;;;;;19.98;46.99;100872.41;5062570;28;20143;-75
2022/11/06 11:04:56;;;;;;;7.05;1.50;;;;;;;19.93;46.97;100854.28;5062292;28;20028;-75
2022/11/06 11:07:22;;;;;;;4.32;1.20;;;;;;;19.97;46.97;100859.31;5062258;28;20039;-76
2022/11/06 11:09:51;;;;;;;3.50;1.13;;;;;;;19.97;46.94;100854.84;5061490;28;20036;-76
2022/11/06 11:12:26;;;;;;;5.78;1.60;;;;;;;19.96;46.88;100847.03;5062122;28;20498;-76
2022/11/06 11:15:13;;;;;;;3.90;1.55;;;;;;;19.98;47.22;100853.03;5061779;28;20173;-76
2022/11/06 11:17:39;;;;;;;3.60;1.10;;;;;;;19.98;47.18;100858.31;5061678;28;20451;-77
2022/11/06 11:20:29;;;;;;;6.05;1.58;;;;;;;19.97;47.05;100854.84;5043850;28;20044;-76
2022/11/06 11:23:13;;;;;;;4.60;1.27;;;;;;;19.97;46.79;100844.25;5061977;28;20028;-76
2022/11/06 11:25:41;;;;;;;4.27;1.50;;;;;;;19.93;47.12;100829.63;5062548;28;20403;-76
2022/11/06 11:28:32;;;;;;;3.72;1.38;;;;;;;19.94;47.18;100840.06;5062061;28;20265;-70
2022/11/06 11:31:18;;;;;;;4.72;1.50;;;;;;;19.93;47.57;100837.56;5061284;28;20040;-70
2022/11/06 11:33:54;;;;;;;5.30;1.20;;;;;;;19.92;47.60;100833.25;5060346;28;20055;-70
2022/11/06 11:36:19;;;;;;;2.45;0.95;;;;;;;19.92;47.38;100812.94;5061895;28;20578;-65
2022/11/06 11:38:45;;;;;;;5.50;1.45;;;;;;;19.82;46.83;100809.44;5060627;28;20036;-67
2022/11/06 11:41:28;;;;;;;3.97;1.35;;;;;;;19.86;47.20;100812.66;5061019;28;20060;-66
2022/11/06 11:44:15;;;;;;;5.15;1.20;;;;;;;19.82;47.25;100813.88;5061224;28;20039;-69
2022/11/06 11:46:54;;;;;;;5.63;1.27;;;;;;;19.80;47.45;100811.38;5061388;28;20040;-66
2022/11/06 11:49:39;;;;;;;3.85;1.63;;;;;;;19.79;47.65;100820.31;5062066;28;20036;-68
2022/11/06 11:52:11;;;;;;;6.22;2.17;;;;;;;19.74;47.57;100812.75;5061229;28;20055;-67
2022/11/06 11:54:38;;;;;;;7.57;2.47;;;;;;;19.77;47.58;100822.22;5061903;28;20060;-67
2022/11/06 11:57:06;;;;;;;10.82;2.72;;;;;;;19.72;47.65;100805.91;5060048;28;20770;-73
2022/11/06 11:59:43;;;;;;;11.00;2.30;;;;;;;19.73;47.63;100787.25;5061275;28;20040;-72
2022/11/06 12:02:17;;;;;;;6.85;2.42;;;;;;;19.69;47.32;100791.16;5060767;28;20033;-67
2022/11/06 12:04:46;;;;;;;8.40;2.60;;;;;;;19.66;47.27;100782.66;5060714;28;20043;-69